createdAt,value
2019-05-30T00:03:02.388Z,1028
2019-05-30T00:08:34.386Z,1028
2019-05-30T00:14:06.625Z,1028
2019-05-30T00:19:38.690Z,1028.1
2019-05-30T00:25:10.820Z,1028
2019-05-30T00:30:42.967Z,1028
2019-05-30T00:36:15.152Z,1028.1
2019-05-30T00:41:47.244Z,1028.1
2019-05-30T00:47:19.274Z,1028.1
2019-05-30T00:52:51.416Z,1028.1
2019-05-30T00:58:23.533Z,1028
2019-05-30T01:03:56.685Z,1028
2019-05-30T01:09:28.404Z,1028.1
2019-05-30T01:15:01.403Z,1028.2
2019-05-30T01:20:34.305Z,1028
2019-05-30T01:26:07.602Z,1028
2019-05-30T01:31:39.752Z,1028.1
2019-05-30T01:37:11.781Z,1028.1
2019-05-30T01:42:43.867Z,1028
2019-05-30T01:48:15.915Z,1028
2019-05-30T01:53:47.930Z,1028
2019-05-30T01:59:20.069Z,1027.9
2019-05-30T02:04:52.085Z,1028.1
2019-05-30T02:10:24.082Z,1028.2
2019-05-30T02:15:56.160Z,1028.1
2019-05-30T02:21:28.187Z,1028.1
2019-05-30T02:27:00.243Z,1028.1
2019-05-30T02:32:32.223Z,1028
2019-05-30T02:38:05.203Z,1028
2019-05-30T02:43:36.214Z,1028.1
2019-05-30T02:49:09.494Z,1028
2019-05-30T02:54:40.382Z,1028.2
2019-05-30T03:00:15.640Z,1028.2
2019-05-30T03:05:44.504Z,1028.2
2019-05-30T03:11:16.472Z,1028.4
2019-05-30T03:16:48.492Z,1028.4
2019-05-30T03:22:20.765Z,1028.5
2019-05-30T03:27:53.691Z,1028.6
2019-05-30T03:33:38.655Z,1028.5
2019-05-30T03:38:58.586Z,1028.5
2019-05-30T03:44:31.482Z,1028.7
2019-05-30T03:50:05.102Z,1028.8
2019-05-30T03:55:35.895Z,1028.8
2019-05-30T04:01:08.186Z,1028.8
2019-05-30T04:06:39.880Z,1028.8
2019-05-30T04:12:12.617Z,1028.7
2019-05-30T04:17:43.986Z,1028.5
2019-05-30T04:23:16.869Z,1028.7
2019-05-30T04:28:48.444Z,1028.9
2019-05-30T04:34:20.557Z,1029.1
2019-05-30T04:39:52.838Z,1029.1
2019-05-30T04:45:27.775Z,1029.2
2019-05-30T04:50:58.632Z,1029.2
2019-05-30T04:56:31.623Z,1029.2
2019-05-30T05:02:04.536Z,1029.2
2019-05-30T05:07:37.467Z,1029.2
2019-05-30T05:13:12.122Z,1029.3
2019-05-30T05:18:43.481Z,1029.3
2019-05-30T05:24:17.281Z,1029.2
2019-05-30T05:29:49.554Z,1029.3
2019-05-30T05:35:22.997Z,1029.2
2019-05-30T05:40:55.737Z,1029.3
2019-05-30T05:46:28.883Z,1029.4
2019-05-30T05:52:01.998Z,1029.2
2019-05-30T05:57:35.185Z,1029.3
2019-05-30T06:03:08.275Z,1029.2
2019-05-30T06:08:41.597Z,1029.1
2019-05-30T06:14:14.741Z,1029.2
2019-05-30T06:19:48.060Z,1029.1
2019-05-30T06:25:24.072Z,1029.1
2019-05-30T06:30:58.098Z,1029.1
2019-05-30T06:36:29.230Z,1029
2019-05-30T06:42:01.475Z,1028.9
2019-05-30T06:47:34.951Z,1028.9
2019-05-30T06:53:08.380Z,1029
2019-05-30T06:58:48.629Z,1028.9
2019-05-30T07:04:15.829Z,1028.8
2019-05-30T07:09:53.522Z,1028.8
2019-05-30T07:15:27.294Z,1028.5
2019-05-30T07:21:00.963Z,1028.6
2019-05-30T07:26:35.142Z,1028.5
2019-05-30T07:32:08.801Z,1028.4
2019-05-30T07:37:46.301Z,1028.3
2019-05-30T07:43:16.948Z,1028.2
2019-05-30T07:48:51.187Z,1028.2
2019-05-30T07:54:26.744Z,1028.2
2019-05-30T07:59:59.918Z,1028.1
2019-05-30T08:05:34.737Z,1028
2019-05-30T08:11:10.192Z,1027.9
2019-05-30T08:16:43.414Z,1027.8
2019-05-30T08:22:18.122Z,1027.6
2019-05-30T08:27:52.762Z,1027.5
2019-05-30T08:33:27.526Z,1027.4
2019-05-30T08:39:02.351Z,1027.4
2019-05-30T08:44:37.961Z,1027.2
2019-05-30T08:50:12.155Z,1027.2
2019-05-30T08:55:47.002Z,1027
2019-05-30T09:01:22.038Z,1027.1
2019-05-30T09:06:57.002Z,1027
2019-05-30T09:12:32.028Z,1027
2019-05-30T09:18:06.967Z,1026.9
2019-05-30T09:23:42.285Z,1026.6
2019-05-30T09:29:17.261Z,1026.7
2019-05-30T09:34:52.486Z,1026.7
2019-05-30T09:40:27.470Z,1026.7
2019-05-30T09:46:02.542Z,1026.3
2019-05-30T09:51:37.865Z,1026.3
2019-05-30T09:57:13.549Z,1026.4
2019-05-30T10:02:48.764Z,1026.3
2019-05-30T10:08:23.739Z,1026
2019-05-30T10:13:59.214Z,1026.1
2019-05-30T10:19:34.437Z,1025.9
2019-05-30T10:25:10.001Z,1025.9
2019-05-30T10:30:49.839Z,1026
2019-05-30T10:36:20.813Z,1026
2019-05-30T10:41:57.199Z,1025.9
2019-05-30T10:47:31.661Z,1025.9
2019-05-30T10:53:07.100Z,1025.8
2019-05-30T10:58:42.531Z,1025.7
2019-05-30T11:04:17.975Z,1025.6
2019-05-30T11:09:53.109Z,1025.5
2019-05-30T11:15:28.696Z,1025.5
2019-05-30T11:21:04.250Z,1025.3
2019-05-30T11:26:39.908Z,1025
2019-05-30T11:32:15.564Z,1025.2
2019-05-30T11:37:51.249Z,1025.1
2019-05-30T11:43:26.877Z,1025.2
2019-05-30T11:49:02.537Z,1025.2
2019-05-30T11:54:38.313Z,1025
2019-05-30T12:00:14.098Z,1025.1
2019-05-30T12:05:50.432Z,1024.9
2019-05-30T12:11:25.493Z,1024.7
2019-05-30T12:17:01.537Z,1024.4
2019-05-30T12:22:36.845Z,1024.6
2019-05-30T12:28:12.660Z,1024.7
2019-05-30T12:33:48.297Z,1024.5
2019-05-30T12:39:24.356Z,1024.5
2019-05-30T12:45:05.189Z,1024.6
2019-05-30T12:50:36.495Z,1024.5
2019-05-30T12:56:12.885Z,1024.6
2019-05-30T13:01:48.085Z,1024.4
2019-05-30T13:07:23.953Z,1024.5
2019-05-30T13:12:59.775Z,1024.3
2019-05-30T13:18:35.922Z,1024.4
2019-05-30T13:24:12.147Z,1024.3
2019-05-30T13:29:47.920Z,1024.3
2019-05-30T13:35:24.360Z,1024.2
2019-05-30T13:41:01.495Z,1024.1
2019-05-30T13:46:37.634Z,1024.2
2019-05-30T13:52:14.377Z,1024.3
2019-05-30T13:57:50.928Z,1024.1
2019-05-30T14:03:27.530Z,1024.3
2019-05-30T14:09:04.235Z,1024.3
2019-05-30T14:14:40.214Z,1024.1
2019-05-30T14:20:16.805Z,1024.2
2019-05-30T14:25:53.404Z,1024.1
2019-05-30T14:31:29.993Z,1023.9
2019-05-30T14:37:06.719Z,1024
2019-05-30T14:42:43.155Z,1024.5
2019-05-30T14:48:18.979Z,1024.1
2019-05-30T14:53:54.424Z,1024.5
2019-05-30T14:59:29.863Z,1024.5
2019-05-30T15:05:05.267Z,1024.5
2019-05-30T15:10:39.675Z,1024.4
2019-05-30T15:16:14.409Z,1024.3
2019-05-30T15:21:49.602Z,1024
2019-05-30T15:27:25.614Z,1024.5
2019-05-30T15:33:01.676Z,1024.4
2019-05-30T15:38:37.359Z,1024.2
2019-05-30T15:44:13.687Z,1024.2
2019-05-30T15:49:52.100Z,1024.6
2019-05-30T15:55:25.436Z,1024.8
2019-05-30T16:01:00.783Z,1024.9
2019-05-30T16:06:35.631Z,1024.9
2019-05-30T16:12:10.959Z,1024.8
2019-05-30T16:17:44.136Z,1024.9
2019-05-30T16:23:18.786Z,1024.9
2019-05-30T16:28:52.634Z,1024.9
2019-05-30T16:34:26.946Z,1024.8
2019-05-30T16:40:06.213Z,1024.8
2019-05-30T16:45:35.538Z,1024.9
2019-05-30T16:51:09.781Z,1024.8
2019-05-30T16:56:44.008Z,1024.9
2019-05-30T17:02:18.861Z,1025
2019-05-30T17:07:53.613Z,1025.1
2019-05-30T17:13:31.167Z,1025.1
2019-05-30T17:19:03.738Z,1025.2
2019-05-30T17:24:38.246Z,1025.2
2019-05-30T17:30:12.286Z,1025.2
2019-05-30T17:35:46.244Z,1025.2
2019-05-30T17:41:20.559Z,1025.1
2019-05-30T17:46:54.615Z,1024.9
2019-05-30T17:52:29.961Z,1025.1
2019-05-30T17:58:03.918Z,1025.2
2019-05-30T18:03:38.950Z,1025.4
2019-05-30T18:09:13.922Z,1025.5
2019-05-30T18:14:48.647Z,1025.6
2019-05-30T18:20:23.389Z,1025.7
2019-05-30T18:25:57.958Z,1025.7
2019-05-30T18:31:32.544Z,1025.7
2019-05-30T18:37:06.744Z,1025.8
2019-05-30T18:42:40.747Z,1025.9
2019-05-30T18:48:14.341Z,1026
2019-05-30T18:53:47.860Z,1026.4
2019-05-30T18:59:21.280Z,1026.4
2019-05-30T19:04:54.623Z,1026.6
2019-05-30T19:10:27.875Z,1026.6
2019-05-30T19:16:00.973Z,1026.7
2019-05-30T19:21:34.244Z,1026.8
2019-05-30T19:27:07.241Z,1026.8
2019-05-30T19:32:40.360Z,1026.8
2019-05-30T19:38:13.507Z,1026.8
2019-05-30T19:43:46.730Z,1026.9
2019-05-30T19:49:20.668Z,1026.9
2019-05-30T19:54:54.572Z,1027
2019-05-30T20:00:29.752Z,1027
2019-05-30T20:06:02.390Z,1027.2
2019-05-30T20:11:37.269Z,1027.2
2019-05-30T20:17:10.265Z,1027.3
2019-05-30T20:22:44.082Z,1027.3
2019-05-30T20:28:17.145Z,1027.4
2019-05-30T20:33:50.232Z,1027.5
2019-05-30T20:39:23.192Z,1027.7
2019-05-30T20:44:56.938Z,1027.7
2019-05-30T20:50:30.671Z,1027.7
2019-05-30T20:56:04.509Z,1027.7
2019-05-30T21:01:38.221Z,1027.9
2019-05-30T21:07:12.041Z,1027.8
2019-05-30T21:12:47.550Z,1027.9
2019-05-30T21:18:19.346Z,1027.9
2019-05-30T21:23:52.836Z,1027.9
2019-05-30T21:29:26.578Z,1028
2019-05-30T21:35:00.489Z,1028
2019-05-30T21:40:34.120Z,1028
2019-05-30T21:46:07.865Z,1028.1
2019-05-30T21:51:41.596Z,1028
2019-05-30T21:57:15.253Z,1028.3
2019-05-30T22:02:48.631Z,1028.2
2019-05-30T22:08:21.314Z,1028.3
2019-05-30T22:13:54.096Z,1028.4
2019-05-30T22:19:26.849Z,1028.2
2019-05-30T22:24:59.567Z,1028.3
2019-05-30T22:30:32.320Z,1028.4
2019-05-30T22:36:05.110Z,1028.3
2019-05-30T22:41:37.712Z,1028.3
2019-05-30T22:47:10.482Z,1028.4
2019-05-30T22:52:43.176Z,1028.4
2019-05-30T22:58:15.977Z,1028.4
2019-05-30T23:03:49.127Z,1028.4
2019-05-30T23:09:21.368Z,1028.5
2019-05-30T23:14:54.325Z,1028.4
2019-05-30T23:20:26.759Z,1028.5
2019-05-30T23:25:59.414Z,1028.6
2019-05-30T23:31:32.076Z,1028.5
2019-05-30T23:37:04.657Z,1028.4
2019-05-30T23:42:37.245Z,1028.3
2019-05-30T23:48:09.915Z,1028.4
2019-05-30T23:53:42.442Z,1028.4
2019-05-30T23:59:15.050Z,1028.5
